createdAt,value
2022-11-01T00:01:57.329Z,15.49
2022-11-01T00:04:25.463Z,15.51
2022-11-01T00:06:53.354Z,15.47
2022-11-01T00:09:22.498Z,15.49
2022-11-01T00:11:50.453Z,15.57
2022-11-01T00:14:20.318Z,15.54
2022-11-01T00:16:48.321Z,15.48
2022-11-01T00:19:16.506Z,15.42
2022-11-01T00:21:44.280Z,15.42
2022-11-01T00:24:12.148Z,15.42
2022-11-01T00:26:41.619Z,15.42
2022-11-01T00:29:09.463Z,15.44
2022-11-01T00:31:37.171Z,15.43
2022-11-01T00:34:06.201Z,15.37
2022-11-01T00:36:34.554Z,15.34
2022-11-01T00:39:02.174Z,15.33
2022-11-01T00:41:29.873Z,15.33
2022-11-01T00:43:58.916Z,15.36
2022-11-01T00:46:27.128Z,15.37
2022-11-01T00:48:54.739Z,15.34
2022-11-01T00:51:22.478Z,15.33
2022-11-01T00:53:50.287Z,15.37
2022-11-01T00:56:18.300Z,15.38
2022-11-01T00:58:46.076Z,15.39
2022-11-01T01:01:15.344Z,15.41
2022-11-01T01:03:43.287Z,15.41
2022-11-01T01:06:11.008Z,15.46
2022-11-01T01:08:38.750Z,15.49
2022-11-01T01:11:06.520Z,15.47
2022-11-01T01:13:34.096Z,15.49
2022-11-01T01:16:01.699Z,15.57
2022-11-01T01:18:30.608Z,15.63
2022-11-01T01:21:01.778Z,15.63
2022-11-01T01:23:29.402Z,15.60
2022-11-01T01:25:57.031Z,15.60
2022-11-01T01:28:24.581Z,15.61
2022-11-01T01:30:52.119Z,15.62
2022-11-01T01:33:19.671Z,15.65
2022-11-01T01:35:48.661Z,15.64
2022-11-01T01:38:16.296Z,15.63
2022-11-01T01:40:43.858Z,15.62
2022-11-01T01:43:13.083Z,15.64
2022-11-01T01:45:42.529Z,15.63
2022-11-01T01:48:20.564Z,15.62
2022-11-01T01:50:57.140Z,15.58
2022-11-01T01:53:28.556Z,15.55
2022-11-01T01:56:00.803Z,15.57
2022-11-01T01:58:31.430Z,15.62
2022-11-01T02:00:59.886Z,15.59
2022-11-01T02:03:31.052Z,15.58
2022-11-01T02:06:03.752Z,15.59
2022-11-01T02:08:32.551Z,15.58
2022-11-01T02:11:02.531Z,15.58
2022-11-01T02:13:31.344Z,15.57
2022-11-01T02:16:18.838Z,15.58
2022-11-01T02:18:49.192Z,15.54
2022-11-01T02:21:46.455Z,15.53
2022-11-01T02:24:43.944Z,15.49
2022-11-01T02:27:20.667Z,15.52
2022-11-01T02:30:12.649Z,15.52
2022-11-01T02:32:57.673Z,15.47
2022-11-01T02:35:31.456Z,15.43
2022-11-01T02:38:07.483Z,15.41
2022-11-01T02:40:44.154Z,15.43
2022-11-01T02:43:17.274Z,15.43
2022-11-01T02:45:49.438Z,15.46
2022-11-01T02:48:21.556Z,15.43
2022-11-01T02:50:54.121Z,15.49
2022-11-01T02:53:21.729Z,15.48
2022-11-01T02:55:51.894Z,15.50
2022-11-01T02:58:23.208Z,15.46
2022-11-01T03:00:52.038Z,15.44
2022-11-01T03:03:24.710Z,15.39
2022-11-01T03:06:06.000Z,15.44
2022-11-01T03:08:37.507Z,15.41
2022-11-01T03:11:09.601Z,15.43
2022-11-01T03:13:53.536Z,15.35
2022-11-01T03:16:29.274Z,15.34
2022-11-01T03:19:07.610Z,15.29
2022-11-01T03:21:40.301Z,15.33
2022-11-01T03:24:15.806Z,15.32
2022-11-01T03:26:44.702Z,15.33
2022-11-01T03:29:13.156Z,15.36
2022-11-01T03:31:43.132Z,15.39
2022-11-01T03:34:16.427Z,15.39
2022-11-01T03:36:48.813Z,15.43
2022-11-01T03:39:21.602Z,15.46
2022-11-01T03:41:55.410Z,15.49
2022-11-01T03:44:23.991Z,15.50
2022-11-01T03:46:51.695Z,15.52
2022-11-01T03:49:21.204Z,15.54
2022-11-01T03:51:49.231Z,15.58
2022-11-01T03:54:16.840Z,15.61
2022-11-01T03:56:44.722Z,15.63
2022-11-01T03:59:12.567Z,15.62
2022-11-01T04:01:40.349Z,15.64
2022-11-01T04:04:08.080Z,15.65
2022-11-01T04:06:37.087Z,15.64
2022-11-01T04:09:05.437Z,15.67
2022-11-01T04:11:33.039Z,15.74
2022-11-01T04:14:14.627Z,15.70
2022-11-01T04:16:59.722Z,15.70
2022-11-01T04:19:44.994Z,15.72
2022-11-01T04:22:13.997Z,15.68
2022-11-01T04:24:41.741Z,15.71
2022-11-01T04:27:09.424Z,15.72
2022-11-01T04:29:37.088Z,15.71
2022-11-01T04:32:04.779Z,15.69
2022-11-01T04:34:44.425Z,15.79
2022-11-01T04:37:14.049Z,15.79
2022-11-01T04:39:41.657Z,15.78
2022-11-01T04:42:09.270Z,15.77
2022-11-01T04:44:36.874Z,15.84
2022-11-01T04:47:04.543Z,15.78
2022-11-01T04:49:32.108Z,15.74
2022-11-01T04:51:59.707Z,15.75
2022-11-01T04:54:33.268Z,15.70
2022-11-01T04:57:00.841Z,15.69
2022-11-01T04:59:28.494Z,15.72
2022-11-01T05:01:56.141Z,15.68
2022-11-01T05:04:23.758Z,15.70
2022-11-01T05:06:51.581Z,15.72
2022-11-01T05:09:19.166Z,15.74
2022-11-01T05:11:48.083Z,15.74
2022-11-01T05:14:15.633Z,15.74
2022-11-01T05:16:43.182Z,15.73
2022-11-01T05:19:10.754Z,15.78
2022-11-01T05:21:38.370Z,15.79
2022-11-01T05:24:06.452Z,15.76
2022-11-01T05:26:34.060Z,15.73
2022-11-01T05:29:09.078Z,15.71
2022-11-01T05:31:41.096Z,15.74
2022-11-01T05:34:08.841Z,15.76
2022-11-01T05:36:36.406Z,15.81
2022-11-01T05:39:04.109Z,15.81
2022-11-01T05:41:31.702Z,15.80
2022-11-01T05:43:59.477Z,15.80
2022-11-01T05:46:28.566Z,15.81
2022-11-01T05:48:56.198Z,15.84
2022-11-01T05:51:24.866Z,15.85
2022-11-01T05:53:52.680Z,15.82
2022-11-01T05:56:20.241Z,15.87
2022-11-01T05:58:48.342Z,15.80
2022-11-01T06:01:17.776Z,15.75
2022-11-01T06:03:50.503Z,15.77
2022-11-01T06:06:18.422Z,15.75
2022-11-01T06:08:46.019Z,15.79
2022-11-01T06:11:13.625Z,15.82
2022-11-01T06:13:41.286Z,15.79
2022-11-01T06:16:09.458Z,15.77
2022-11-01T06:18:37.077Z,15.80
2022-11-01T06:21:06.238Z,15.77
2022-11-01T06:23:33.905Z,15.80
2022-11-01T06:26:02.697Z,15.77
2022-11-01T06:28:30.295Z,15.78
2022-11-01T06:31:01.810Z,15.79
2022-11-01T06:33:29.501Z,15.77
2022-11-01T06:35:57.071Z,15.79
2022-11-01T06:38:26.216Z,15.78
2022-11-01T06:40:53.780Z,15.75
2022-11-01T06:43:21.374Z,15.79
2022-11-01T06:45:49.104Z,15.81
2022-11-01T06:48:16.713Z,15.78
2022-11-01T06:50:44.340Z,15.86
2022-11-01T06:53:11.956Z,15.83
2022-11-01T06:55:40.875Z,15.86
2022-11-01T06:58:08.481Z,15.86
2022-11-01T07:00:36.167Z,15.86
2022-11-01T07:03:05.751Z,15.83
2022-11-01T07:05:37.133Z,15.86
2022-11-01T07:08:07.144Z,15.91
2022-11-01T07:10:36.456Z,15.90
2022-11-01T07:13:07.183Z,15.86
2022-11-01T07:15:35.671Z,15.89
2022-11-01T07:18:06.398Z,15.83
2022-11-01T07:20:41.024Z,15.85
2022-11-01T07:23:12.227Z,15.90
2022-11-01T07:25:39.862Z,15.93
2022-11-01T07:28:08.900Z,15.96
2022-11-01T07:30:39.224Z,16.00
2022-11-01T07:33:07.184Z,16.01
2022-11-01T07:35:35.599Z,16.08
2022-11-01T07:38:06.521Z,16.09
2022-11-01T07:40:39.801Z,16.12
2022-11-01T07:43:08.883Z,16.15
2022-11-01T07:45:36.700Z,16.22
2022-11-01T07:48:06.489Z,16.24
2022-11-01T07:50:35.233Z,16.29
2022-11-01T07:53:03.125Z,16.28
2022-11-01T07:55:30.761Z,16.27
2022-11-01T07:57:58.572Z,16.30
2022-11-01T08:00:27.753Z,16.33
2022-11-01T08:03:01.507Z,16.39
2022-11-01T08:05:29.575Z,16.40
2022-11-01T08:07:57.438Z,16.40
2022-11-01T08:10:25.428Z,16.42
2022-11-01T08:12:53.278Z,16.44
2022-11-01T08:15:20.886Z,16.54
2022-11-01T08:17:50.057Z,16.54
2022-11-01T08:20:17.701Z,16.60
2022-11-01T08:25:13.904Z,16.68
2022-11-01T08:27:41.529Z,16.66
2022-11-01T08:30:10.241Z,16.71
2022-11-01T08:32:37.889Z,16.63
2022-11-01T08:35:08.675Z,16.61
2022-11-01T08:37:36.276Z,16.58
2022-11-01T08:40:04.678Z,16.56
2022-11-01T08:42:32.250Z,16.63
2022-11-01T08:44:59.877Z,16.62
2022-11-01T08:47:27.532Z,16.65
2022-11-01T08:49:55.158Z,16.62
2022-11-01T08:52:25.439Z,16.65
2022-11-01T08:54:53.123Z,16.64
2022-11-01T08:57:20.693Z,16.67
2022-11-01T08:59:48.337Z,16.68
2022-11-01T09:02:16.310Z,16.69
2022-11-01T09:04:44.056Z,16.68
2022-11-01T09:07:11.772Z,16.71
2022-11-01T09:09:40.759Z,16.69
2022-11-01T09:12:13.843Z,16.61
2022-11-01T09:14:42.201Z,16.57
2022-11-01T09:17:10.018Z,16.57
2022-11-01T09:19:38.009Z,16.51
2022-11-01T09:22:05.806Z,16.47
2022-11-01T09:24:33.435Z,16.44
2022-11-01T09:27:02.457Z,16.37
2022-11-01T09:29:30.097Z,16.35
2022-11-01T09:31:57.814Z,16.30
2022-11-01T09:34:25.466Z,16.31
2022-11-01T09:36:54.000Z,16.30
2022-11-01T09:39:22.132Z,16.36
2022-11-01T09:41:52.966Z,16.42
2022-11-01T09:44:27.711Z,16.46
2022-11-01T09:47:02.361Z,16.51
2022-11-01T09:49:35.412Z,16.60
2022-11-01T09:52:03.231Z,16.67
2022-11-01T09:54:30.898Z,16.90
2022-11-01T09:57:06.750Z,17.16
2022-11-01T09:59:39.945Z,17.43
2022-11-01T10:02:30.958Z,17.84
2022-11-01T10:05:18.615Z,18.35
2022-11-01T10:07:55.809Z,19.20
2022-11-01T10:10:38.761Z,19.99
2022-11-01T10:13:30.469Z,20.64
2022-11-01T10:16:05.165Z,21.17
2022-11-01T10:18:36.482Z,21.91
2022-11-01T10:21:10.150Z,21.73
2022-11-01T10:23:47.050Z,21.33
2022-11-01T10:26:18.293Z,20.90
2022-11-01T10:28:53.283Z,20.44
2022-11-01T10:31:25.806Z,20.02
2022-11-01T10:34:00.058Z,19.86
2022-11-01T10:36:33.410Z,20.18
2022-11-01T10:42:09.779Z,21.90
2022-11-01T10:44:41.264Z,21.84
2022-11-01T10:47:16.055Z,22.03
2022-11-01T10:52:47.426Z,22.52
2022-11-01T10:55:20.546Z,22.64
2022-11-01T10:57:52.511Z,23.86
2022-11-01T11:00:22.051Z,24.48
2022-11-01T11:02:54.729Z,25.34
2022-11-01T11:05:23.909Z,26.64
2022-11-01T11:07:52.133Z,26.87
2022-11-01T11:10:24.359Z,26.83
2022-11-01T11:12:57.832Z,26.67
2022-11-01T11:15:38.426Z,27.13
2022-11-01T11:18:17.218Z,27.59
2022-11-01T11:20:45.168Z,27.93
2022-11-01T11:23:13.768Z,28.72
2022-11-01T11:25:43.225Z,29.04
2022-11-01T11:28:26.894Z,28.93
2022-11-01T11:30:54.751Z,29.00
2022-11-01T11:33:23.964Z,28.62
2022-11-01T11:35:57.519Z,28.28
2022-11-01T11:38:41.567Z,28.32
2022-11-01T11:41:11.738Z,28.03
2022-11-01T11:43:41.725Z,27.33
2022-11-01T11:46:19.082Z,26.50
2022-11-01T11:48:53.067Z,25.83
2022-11-01T11:51:21.983Z,25.71
2022-11-01T11:54:20.519Z,26.16
2022-11-01T11:56:48.836Z,26.17
2022-11-01T11:59:25.979Z,25.64
2022-11-01T12:02:00.044Z,25.04
2022-11-01T12:04:35.200Z,25.10
2022-11-01T12:07:02.877Z,25.46
2022-11-01T12:09:44.803Z,24.87
2022-11-01T12:12:20.763Z,24.63
2022-11-01T12:14:48.362Z,24.90
2022-11-01T12:17:32.350Z,25.07
2022-11-01T12:20:15.729Z,24.69
2022-11-01T12:22:49.532Z,23.98
2022-11-01T12:25:21.347Z,23.47
2022-11-01T12:28:00.040Z,23.64
2022-11-01T12:32:59.441Z,24.37
2022-11-01T12:35:35.701Z,24.62
2022-11-01T12:38:27.008Z,24.73
2022-11-01T12:41:02.257Z,25.02
2022-11-01T12:43:37.739Z,25.05
2022-11-01T12:46:13.841Z,25.04
2022-11-01T12:48:46.066Z,25.09
2022-11-01T12:51:21.438Z,25.07
2022-11-01T12:53:54.096Z,24.87
2022-11-01T12:56:21.945Z,24.68
2022-11-01T12:58:53.625Z,24.21
2022-11-01T13:01:33.585Z,23.68
2022-11-01T13:04:18.699Z,23.17
2022-11-01T13:07:03.404Z,22.74
2022-11-01T13:09:45.858Z,22.39
2022-11-01T13:12:24.020Z,22.08
2022-11-01T13:15:00.184Z,21.75
2022-11-01T13:17:39.553Z,21.47
2022-11-01T13:20:22.698Z,21.24
2022-11-01T13:23:01.905Z,21.06
2022-11-01T13:25:40.527Z,20.87
2022-11-01T13:28:19.260Z,20.67
2022-11-01T13:30:58.261Z,20.54
2022-11-01T13:33:33.971Z,20.43
2022-11-01T13:36:07.650Z,20.30
2022-11-01T13:38:44.831Z,20.18
2022-11-01T13:41:23.569Z,20.05
2022-11-01T13:43:55.672Z,19.98
2022-11-01T13:47:08.019Z,19.86
2022-11-01T13:50:32.527Z,19.77
2022-11-01T13:53:05.630Z,19.67
2022-11-01T13:55:39.918Z,19.63
2022-11-01T13:58:08.204Z,19.56
2022-11-01T14:00:40.137Z,19.48
2022-11-01T14:03:29.637Z,19.37
2022-11-01T14:06:26.562Z,19.33
2022-11-01T14:09:30.065Z,19.30
2022-11-01T14:12:11.402Z,19.26
2022-11-01T14:14:53.042Z,19.16
2022-11-01T14:17:55.216Z,19.04
2022-11-01T14:20:53.497Z,18.89
2022-11-01T14:23:59.582Z,18.86
2022-11-01T14:26:49.545Z,18.82
2022-11-01T14:29:19.357Z,18.75
2022-11-01T14:31:49.200Z,18.70
2022-11-01T14:34:25.490Z,18.65
2022-11-01T14:36:56.614Z,18.58
2022-11-01T14:39:33.047Z,18.62
2022-11-01T14:42:03.607Z,18.53
2022-11-01T14:44:38.096Z,18.48
2022-11-01T14:47:17.697Z,18.45
2022-11-01T14:49:45.774Z,18.37
2022-11-01T14:52:21.457Z,18.29
2022-11-01T14:54:53.171Z,18.26
2022-11-01T14:57:25.849Z,18.23
2022-11-01T14:59:56.084Z,18.18
2022-11-01T15:02:25.700Z,18.13
2022-11-01T15:04:58.948Z,18.09
2022-11-01T15:07:30.847Z,18.07
2022-11-01T15:10:01.599Z,18.02
2022-11-01T15:12:33.026Z,17.98
2022-11-01T15:15:03.375Z,17.97
2022-11-01T15:17:33.906Z,17.93
2022-11-01T15:20:04.516Z,17.88
2022-11-01T15:22:34.463Z,17.84
2022-11-01T15:25:05.083Z,17.83
2022-11-01T15:27:38.810Z,17.80
2022-11-01T15:30:19.755Z,17.76
2022-11-01T15:32:52.953Z,17.72
2022-11-01T15:35:23.518Z,17.65
2022-11-01T15:37:54.150Z,17.59
2022-11-01T15:40:28.446Z,17.57
2022-11-01T15:43:00.685Z,17.54
2022-11-01T15:45:32.355Z,17.54
2022-11-01T15:48:06.806Z,17.49
2022-11-01T15:50:39.404Z,17.44
2022-11-01T15:53:11.113Z,17.37
2022-11-01T15:55:42.010Z,17.26
2022-11-01T15:58:15.340Z,17.12
2022-11-01T16:00:48.297Z,17.06
2022-11-01T16:03:19.716Z,16.96
2022-11-01T16:05:56.837Z,16.86
2022-11-01T16:08:32.281Z,16.81
2022-11-01T16:11:01.130Z,16.79
2022-11-01T16:13:31.970Z,16.79
2022-11-01T16:16:03.850Z,16.76
2022-11-01T16:18:35.915Z,16.65
2022-11-01T16:21:05.918Z,16.55
2022-11-01T16:23:34.429Z,16.52
2022-11-01T16:26:04.418Z,16.46
2022-11-01T16:28:38.734Z,16.45
2022-11-01T16:31:19.221Z,16.43
2022-11-01T16:33:48.215Z,16.44
2022-11-01T16:36:35.514Z,16.46
2022-11-01T16:39:03.383Z,16.41
2022-11-01T16:41:37.893Z,16.40
2022-11-01T16:44:14.147Z,16.37
2022-11-01T16:46:43.253Z,16.32
2022-11-01T16:49:19.839Z,16.26
2022-11-01T16:51:48.349Z,16.22
2022-11-01T16:54:16.204Z,16.12
2022-11-01T16:56:48.129Z,16.12
2022-11-01T16:59:30.602Z,16.18
2022-11-01T17:02:00.878Z,16.08
2022-11-01T17:04:29.615Z,16.09
2022-11-01T17:06:59.011Z,15.94
2022-11-01T17:09:33.441Z,15.80
2022-11-01T17:12:01.068Z,15.74
2022-11-01T17:14:29.023Z,15.71
2022-11-01T17:16:57.168Z,15.73
2022-11-01T17:19:29.927Z,15.75
2022-11-01T17:21:59.163Z,15.80
2022-11-01T17:24:28.442Z,15.76
2022-11-01T17:26:59.038Z,15.74
2022-11-01T17:29:29.549Z,15.66
2022-11-01T17:31:57.443Z,15.58
2022-11-01T17:34:28.888Z,15.55
2022-11-01T17:36:58.588Z,15.49
2022-11-01T17:39:28.629Z,15.44
2022-11-01T17:41:56.288Z,15.38
2022-11-01T17:44:24.230Z,15.32
2022-11-01T17:46:51.923Z,15.41
2022-11-01T17:49:21.531Z,15.42
2022-11-01T17:51:54.775Z,15.38
2022-11-01T17:54:23.134Z,15.43
2022-11-01T17:56:51.475Z,15.44
2022-11-01T17:59:19.568Z,15.46
2022-11-01T18:01:47.344Z,15.44
2022-11-01T18:04:15.617Z,15.33
2022-11-01T18:06:43.988Z,15.22
2022-11-01T18:09:20.822Z,15.19
2022-11-01T18:11:53.634Z,15.27
2022-11-01T18:14:33.418Z,15.32
2022-11-01T18:17:16.978Z,15.33
2022-11-01T18:19:54.727Z,15.26
2022-11-01T18:22:32.758Z,15.12
2022-11-01T18:25:06.413Z,15.05
2022-11-01T18:27:36.569Z,15.01
2022-11-01T18:30:13.910Z,15.05
2022-11-01T18:32:48.856Z,15.01
2022-11-01T18:35:31.744Z,15.00
2022-11-01T18:38:23.498Z,14.91
2022-11-01T18:41:00.139Z,14.89
2022-11-01T18:43:30.026Z,14.79
2022-11-01T18:46:27.750Z,14.75
2022-11-01T18:48:48.046Z,14.72
2022-11-01T18:51:22.505Z,14.68
2022-11-01T18:53:55.140Z,14.72
2022-11-01T18:56:26.437Z,14.76
2022-11-01T18:58:56.272Z,14.73
2022-11-01T19:01:31.887Z,14.64
2022-11-01T19:04:03.764Z,14.60
2022-11-01T19:06:33.676Z,14.61
2022-11-01T19:09:14.042Z,14.52
2022-11-01T19:11:43.234Z,14.47
2022-11-01T19:14:15.136Z,14.45
2022-11-01T19:16:43.289Z,14.44
2022-11-01T19:19:17.463Z,14.39
2022-11-01T19:21:45.168Z,14.37
2022-11-01T19:24:31.306Z,14.30
2022-11-01T19:27:01.113Z,14.24
2022-11-01T19:29:32.224Z,14.21
2022-11-01T19:32:02.954Z,14.19
2022-11-01T19:34:36.074Z,14.27
2022-11-01T19:37:08.483Z,14.26
2022-11-01T19:39:40.718Z,14.29
2022-11-01T19:42:20.300Z,14.25
2022-11-01T19:44:48.034Z,14.22
2022-11-01T19:47:36.413Z,14.28
2022-11-01T19:50:15.817Z,14.21
2022-11-01T19:52:47.250Z,14.17
2022-11-01T19:55:50.917Z,14.23
2022-11-01T19:58:26.764Z,14.26
2022-11-01T20:01:04.533Z,14.29
2022-11-01T20:03:39.849Z,14.40
2022-11-01T20:06:16.440Z,14.34
2022-11-01T20:08:45.256Z,14.26
2022-11-01T20:11:13.357Z,14.31
2022-11-01T20:13:42.488Z,14.26
2022-11-01T20:16:10.122Z,14.23
2022-11-01T20:18:37.719Z,14.26
2022-11-01T20:21:06.421Z,14.32
2022-11-01T20:23:34.657Z,14.36
2022-11-01T20:26:03.694Z,14.28
2022-11-01T20:28:31.576Z,14.16
2022-11-01T20:31:01.008Z,14.04
2022-11-01T20:33:28.587Z,13.90
2022-11-01T20:35:56.536Z,14.00
2022-11-01T20:38:24.512Z,13.94
2022-11-01T20:40:52.184Z,13.92
2022-11-01T20:43:20.082Z,13.87
2022-11-01T20:45:47.776Z,13.87
2022-11-01T20:48:18.151Z,13.81
2022-11-01T20:50:45.889Z,13.74
2022-11-01T20:53:14.708Z,13.74
2022-11-01T20:55:42.667Z,13.78
2022-11-01T20:58:10.414Z,13.72
2022-11-01T21:00:38.568Z,13.76
2022-11-01T21:03:14.132Z,13.87
2022-11-01T21:05:44.561Z,13.96
2022-11-01T21:08:22.700Z,13.96
2022-11-01T21:10:56.384Z,13.99
2022-11-01T21:13:27.041Z,13.94
2022-11-01T21:15:56.459Z,13.96
2022-11-01T21:18:32.896Z,14.04
2022-11-01T21:21:25.092Z,13.89
2022-11-01T21:23:52.802Z,13.90
2022-11-01T21:26:22.593Z,13.73
2022-11-01T21:28:51.685Z,13.63
2022-11-01T21:31:27.501Z,13.56
2022-11-01T21:33:57.356Z,13.48
2022-11-01T21:36:34.801Z,13.46
2022-11-01T21:39:04.557Z,13.50
2022-11-01T21:41:40.097Z,13.56
2022-11-01T21:44:28.036Z,13.62
2022-11-01T21:46:57.615Z,13.70
2022-11-01T21:49:30.507Z,13.72
2022-11-01T21:52:01.059Z,13.61
2022-11-01T21:54:29.923Z,13.54
2022-11-01T21:56:58.230Z,13.83
2022-11-01T21:59:26.988Z,13.72
2022-11-01T22:01:56.109Z,13.68
2022-11-01T22:04:28.536Z,13.72
2022-11-01T22:06:56.869Z,13.68
2022-11-01T22:09:26.277Z,13.63
2022-11-01T22:11:54.097Z,13.59
2022-11-01T22:14:22.130Z,13.57
2022-11-01T22:16:49.838Z,13.56
2022-11-01T22:19:17.524Z,13.60
2022-11-01T22:24:18.289Z,13.39
2022-11-01T22:26:47.489Z,13.30
2022-11-01T22:29:15.408Z,13.16
2022-11-01T22:31:43.401Z,13.06
2022-11-01T22:34:11.273Z,12.94
2022-11-01T22:36:41.531Z,12.95
2022-11-01T22:39:15.451Z,12.96
2022-11-01T22:41:43.422Z,12.99
2022-11-01T22:44:17.622Z,12.91
2022-11-01T22:46:50.297Z,12.86
2022-11-01T22:49:25.736Z,12.77
2022-11-01T22:51:56.180Z,12.75
2022-11-01T22:54:47.584Z,12.86
2022-11-01T22:57:17.142Z,12.94
2022-11-01T22:59:49.076Z,12.97
2022-11-01T23:02:28.769Z,13.00
2022-11-01T23:05:19.702Z,13.06
2022-11-01T23:07:49.807Z,13.16
2022-11-01T23:10:30.058Z,13.14
2022-11-01T23:13:18.433Z,13.07
2022-11-01T23:15:47.757Z,13.08
2022-11-01T23:18:22.318Z,13.14
2022-11-01T23:20:55.262Z,13.14
2022-11-01T23:23:24.032Z,13.14
2022-11-01T23:25:52.306Z,13.20
2022-11-01T23:28:20.255Z,13.16
2022-11-01T23:30:49.583Z,12.98
2022-11-01T23:33:19.974Z,12.87
2022-11-01T23:35:51.949Z,12.73
2022-11-01T23:38:22.155Z,12.66
2022-11-01T23:40:51.383Z,12.61
2022-11-01T23:43:25.098Z,12.53
2022-11-01T23:45:54.881Z,12.48
2022-11-01T23:48:23.584Z,12.43
2022-11-01T23:50:54.106Z,12.36
2022-11-01T23:53:27.452Z,12.31
2022-11-01T23:55:55.746Z,12.34
2022-11-01T23:58:27.309Z,12.30
